Time;durP1;ratioP1;P1;durP2;ratioP2;P2;SDS_P1;SDS_P2;PMS_P1;PMS_P2;Temp;Humidity;BMP_temperature;BMP_pressure;BME280_temperature;BME280_humidity;BME280_pressure;Samples;Min_cycle;Max_cycle;Signal;HPM_P1;HPM_P2
2023/04/21 04:06:20;;;;;;;3.25;3.00;;;4.70;99.90;;;;;;5378501;23;20713;-62
2023/04/21 04:08:45;;;;;;;2.10;2.00;;;4.60;99.90;;;;;;4977529;28;20170;-63
2023/04/21 04:11:11;;;;;;;2.00;1.90;;;4.50;99.90;;;;;;4977964;28;20195;-64
2023/04/21 04:13:36;;;;;;;3.10;2.50;;;4.50;99.90;;;;;;4959915;28;20218;-64
2023/04/21 04:16:02;;;;;;;2.83;2.63;;;4.60;99.90;;;;;;4958561;28;20204;-64
2023/04/21 04:18:27;;;;;;;2.83;2.47;;;4.60;99.90;;;;;;4958245;29;20639;-64
2023/04/21 04:20:53;;;;;;;3.60;2.70;;;4.60;99.90;;;;;;4957770;29;20184;-64
2023/04/21 04:23:19;;;;;;;3.60;3.10;;;4.60;99.90;;;;;;4958079;29;20532;-64
2023/04/21 04:25:46;;;;;;;3.37;2.97;;;4.60;99.90;;;;;;4957883;28;20193;-64
2023/04/21 04:28:12;;;;;;;3.15;2.95;;;4.60;99.90;;;;;;4958067;29;20178;-63
2023/04/21 04:30:38;;;;;;;3.07;2.87;;;4.60;99.90;;;;;;4957821;29;20181;-63
2023/04/21 04:33:04;;;;;;;4.47;3.57;;;4.70;99.90;;;;;;4957577;29;20535;-65
2023/04/21 04:35:29;;;;;;;2.80;2.60;;;4.70;99.90;;;;;;4956603;28;20686;-63
2023/04/21 04:37:56;;;;;;;3.67;2.67;;;4.70;99.90;;;;;;4957527;29;20196;-63
2023/04/21 04:40:22;;;;;;;4.60;4.18;;;4.70;99.90;;;;;;4956971;28;20232;-64
2023/04/21 04:42:48;;;;;;;3.97;3.60;;;4.80;99.90;;;;;;4957771;29;20185;-63
2023/04/21 04:45:15;;;;;;;4.47;4.03;;;4.80;99.90;;;;;;4956920;28;20432;-63
2023/04/21 04:47:41;;;;;;;4.78;2.78;;;4.80;99.90;;;;;;4956959;29;20246;-63
2023/04/21 04:50:07;;;;;;;5.90;4.40;;;4.80;99.90;;;;;;4959499;28;20591;-63
2023/04/21 04:52:33;;;;;;;8.32;5.18;;;4.80;99.90;;;;;;4965178;28;20427;-64
2023/04/21 04:54:58;;;;;;;10.77;3.83;;;4.80;99.90;;;;;;4958961;28;20197;-63
2023/04/21 04:57:24;;;;;;;3.80;2.80;;;4.80;99.90;;;;;;4956928;28;20541;-63
2023/04/21 04:59:54;;;;;;;3.07;2.83;;;4.80;99.90;;;;;;4956741;29;20205;-63
2023/04/21 05:02:21;;;;;;;8.85;5.22;;;4.90;99.90;;;;;;4957443;29;20185;-63
2023/04/21 05:04:46;;;;;;;3.10;2.90;;;4.90;99.90;;;;;;4956382;28;20566;-63
2023/04/21 05:07:12;;;;;;;8.43;3.30;;;4.90;99.90;;;;;;4957083;29;20191;-63
2023/04/21 05:09:38;;;;;;;7.80;4.40;;;4.80;99.90;;;;;;4957517;29;20185;-63
2023/04/21 05:12:04;;;;;;;4.50;4.10;;;4.90;99.90;;;;;;4956801;29;20181;-63
2023/04/21 05:14:31;;;;;;;6.10;4.53;;;4.90;99.90;;;;;;4955541;28;20192;-63
2023/04/21 05:16:56;;;;;;;4.30;3.47;;;4.90;99.90;;;;;;4970269;28;20666;-63
2023/04/21 05:19:22;;;;;;;4.80;4.30;;;4.90;99.90;;;;;;4975491;28;20255;-62
2023/04/21 05:21:47;;;;;;;3.30;3.10;;;5.00;99.90;;;;;;4956444;29;20256;-66
2023/04/21 05:24:13;;;;;;;3.67;3.47;;;5.00;99.90;;;;;;4956392;28;20267;-62
2023/04/21 05:26:39;;;;;;;4.77;3.97;;;5.00;99.90;;;;;;4956746;29;20265;-62
2023/04/21 05:29:04;;;;;;;7.10;6.03;;;5.10;99.90;;;;;;4956554;29;20427;-62
2023/04/21 05:31:30;;;;;;;3.93;2.57;;;5.10;99.90;;;;;;4956316;29;20693;-63
2023/04/21 05:33:55;;;;;;;4.67;4.23;;;5.10;99.90;;;;;;4939010;28;20284;-62
2023/04/21 05:36:23;;;;;;;4.97;4.03;;;5.20;99.90;;;;;;4956392;29;20205;-62
2023/04/21 05:38:49;;;;;;;3.72;3.30;;;5.30;99.90;;;;;;4956767;29;20162;-62
2023/04/21 05:41:15;;;;;;;4.97;3.93;;;5.30;99.90;;;;;;4956141;29;20536;-61
2023/04/21 05:43:40;;;;;;;4.20;3.80;;;5.30;99.90;;;;;;4956133;29;20179;-62
2023/04/21 05:46:12;;;;;;;5.20;3.83;;;5.40;99.90;;;;;;4955610;29;20197;-61
2023/04/21 05:48:39;;;;;;;5.13;4.63;;;5.40;99.90;;;;;;4955386;29;20640;-62
2023/04/21 05:51:12;;;;;;;3.03;2.83;;;5.40;99.90;;;;;;4938668;29;20264;-61
2023/04/21 05:53:38;;;;;;;6.55;4.65;;;5.50;99.90;;;;;;4954877;28;20206;-62
2023/04/21 05:56:05;;;;;;;6.28;4.40;;;5.60;99.90;;;;;;4956300;29;20196;-62
2023/04/21 05:58:32;;;;;;;4.68;4.20;;;5.60;99.90;;;;;;4938723;29;20183;-62
2023/04/21 06:00:57;;;;;;;11.00;5.93;;;5.70;99.90;;;;;;4956052;29;20194;-62
2023/04/21 06:03:23;;;;;;;9.97;4.77;;;5.80;99.90;;;;;;4955748;29;20172;-62
2023/04/21 06:05:56;;;;;;;5.67;5.07;;;5.90;99.90;;;;;;4955525;28;20219;-63
2023/04/21 06:08:22;;;;;;;6.43;4.85;;;6.10;99.90;;;;;;4956207;29;20183;-62
2023/04/21 06:10:48;;;;;;;7.50;4.70;;;6.30;99.90;;;;;;4955880;29;20200;-62
2023/04/21 06:13:13;;;;;;;4.10;3.13;;;6.40;99.90;;;;;;4955881;29;20673;-63
2023/04/21 06:15:39;;;;;;;8.70;3.97;;;6.50;99.90;;;;;;4955967;28;20828;-62
2023/04/21 06:18:05;;;;;;;5.37;3.90;;;6.70;99.90;;;;;;4955862;29;20183;-62
2023/04/21 06:20:30;;;;;;;5.27;4.50;;;6.80;99.90;;;;;;4956070;29;20176;-63
2023/04/21 06:22:56;;;;;;;6.33;5.73;;;6.90;99.90;;;;;;4938678;29;20219;-63
2023/04/21 06:25:21;;;;;;;5.03;4.00;;;7.00;99.90;;;;;;4955532;28;20554;-62
2023/04/21 06:27:47;;;;;;;6.93;4.50;;;7.10;99.90;;;;;;4955851;29;20250;-63
2023/04/21 06:30:13;;;;;;;4.00;3.67;;;7.20;99.90;;;;;;4955885;29;20188;-62
2023/04/21 06:32:39;;;;;;;5.38;4.88;;;7.30;99.90;;;;;;4955849;29;20583;-62
2023/04/21 06:35:05;;;;;;;3.97;3.70;;;7.40;99.90;;;;;;4955449;28;20258;-62
2023/04/21 06:37:30;;;;;;;5.67;4.27;;;7.40;99.90;;;;;;4955766;29;20414;-62
2023/04/21 06:39:56;;;;;;;5.77;4.63;;;7.60;99.90;;;;;;4955797;29;20807;-63
2023/04/21 06:42:22;;;;;;;8.00;4.50;;;7.80;99.90;;;;;;4955438;29;20173;-63
2023/04/21 06:44:48;;;;;;;6.13;5.00;;;8.00;99.90;;;;;;4955391;28;20550;-62
2023/04/21 06:47:15;;;;;;;7.57;6.90;;;8.30;99.90;;;;;;4955440;29;20496;-62
2023/04/21 06:49:41;;;;;;;6.55;4.70;;;8.80;99.90;;;;;;4955461;29;20644;-62
2023/04/21 06:52:06;;;;;;;8.77;7.00;;;9.30;99.90;;;;;;4955508;29;20313;-62
2023/04/21 06:54:32;;;;;;;8.10;6.10;;;9.70;99.90;;;;;;4955157;28;20203;-63
2023/04/21 06:56:57;;;;;;;5.63;4.63;;;10.00;99.90;;;;;;4938201;29;20214;-63
2023/04/21 06:59:23;;;;;;;9.17;6.40;;;10.50;99.90;;;;;;4955471;29;20176;-62
2023/04/21 07:01:51;;;;;;;6.33;4.77;;;11.10;99.90;;;;;;4955275;29;20172;-62
2023/04/21 07:04:17;;;;;;;5.63;4.90;;;11.40;99.90;;;;;;4954703;28;20208;-63
2023/04/21 07:06:43;;;;;;;6.53;4.50;;;11.70;99.90;;;;;;4955223;29;20922;-62
2023/04/21 07:09:09;;;;;;;7.80;4.40;;;11.80;99.90;;;;;;4955341;29;20426;-62
2023/04/21 07:11:34;;;;;;;5.60;3.73;;;12.00;99.90;;;;;;4955048;29;20564;-62
2023/04/21 07:14:01;;;;;;;4.93;4.00;;;11.90;99.90;;;;;;4955114;28;20862;-63
2023/04/21 07:16:27;;;;;;;5.07;4.57;;;11.80;99.90;;;;;;4954916;29;20213;-63
2023/04/21 07:18:53;;;;;;;5.03;4.50;;;11.70;99.90;;;;;;4955664;29;20777;-62
2023/04/21 07:21:18;;;;;;;5.87;4.90;;;11.60;99.90;;;;;;4955144;29;20491;-62
2023/04/21 07:23:44;;;;;;;5.43;4.93;;;11.30;99.90;;;;;;4954849;28;20263;-63
2023/04/21 07:26:09;;;;;;;4.30;3.90;;;11.00;99.90;;;;;;4955100;29;20182;-63
2023/04/21 07:28:36;;;;;;;4.00;3.50;;;10.90;99.90;;;;;;4955030;29;20184;-62
2023/04/21 07:31:01;;;;;;;8.03;4.90;;;10.70;99.90;;;;;;4955095;29;20184;-62
2023/04/21 07:33:27;;;;;;;4.23;3.60;;;10.50;99.90;;;;;;4954943;29;20471;-62
2023/04/21 07:35:53;;;;;;;4.13;3.73;;;10.50;99.90;;;;;;4954977;28;20672;-62
2023/04/21 07:38:18;;;;;;;5.70;5.20;;;10.60;99.90;;;;;;4955114;29;20181;-63
2023/04/21 07:40:44;;;;;;;5.83;4.93;;;10.80;99.90;;;;;;4955074;29;20215;-62
2023/04/21 07:43:09;;;;;;;5.40;5.00;;;10.90;99.90;;;;;;4954626;29;20172;-63
2023/04/21 07:45:35;;;;;;;5.60;4.43;;;10.80;99.90;;;;;;4955007;28;20593;-62
2023/04/21 07:48:01;;;;;;;4.80;4.30;;;10.70;99.90;;;;;;4955151;29;20188;-62
2023/04/21 07:50:26;;;;;;;5.67;4.23;;;10.60;99.90;;;;;;4955038;29;20190;-62
2023/04/21 07:52:52;;;;;;;7.27;5.80;;;10.80;99.90;;;;;;4937877;29;20178;-63
2023/04/21 07:55:17;;;;;;;4.80;4.37;;;10.80;99.90;;;;;;4954289;28;20204;-63
2023/04/21 07:57:43;;;;;;;5.03;4.00;;;11.10;99.90;;;;;;4954988;29;20180;-63
2023/04/21 08:00:09;;;;;;;4.87;4.47;;;11.80;99.90;;;;;;4954802;29;20172;-63
2023/04/21 08:02:35;;;;;;;6.93;4.67;;;12.40;99.90;;;;;;4955060;29;20174;-63
2023/04/21 08:05:00;;;;;;;4.70;3.90;;;12.90;99.90;;;;;;4954363;28;21027;-63
2023/04/21 08:07:26;;;;;;;4.10;3.33;;;13.40;99.90;;;;;;4954524;29;20181;-63
2023/04/21 08:09:51;;;;;;;5.80;4.90;;;14.00;99.90;;;;;;4954594;29;20173;-63
2023/04/21 08:12:18;;;;;;;4.33;3.93;;;14.70;99.90;;;;;;4954644;29;20169;-63
2023/04/21 08:14:43;;;;;;;4.83;4.33;;;15.70;99.90;;;;;;4936955;28;20195;-63
2023/04/21 08:17:09;;;;;;;4.13;3.73;;;16.30;99.90;;;;;;4957265;29;20433;-63
2023/04/21 08:19:35;;;;;;;4.07;3.67;;;16.40;99.90;;;;;;4957973;29;20694;-63
2023/04/21 08:22:00;;;;;;;3.53;3.30;;;16.30;99.90;;;;;;4958073;29;20238;-63
2023/04/21 08:24:26;;;;;;;4.10;3.63;;;16.60;99.90;;;;;;4940345;29;20674;-62
2023/04/21 08:26:51;;;;;;;4.23;3.93;;;16.80;99.90;;;;;;4958171;29;20192;-63
2023/04/21 08:29:17;;;;;;;3.83;3.40;;;16.70;99.90;;;;;;4957780;29;20172;-63
2023/04/21 08:31:43;;;;;;;2.60;2.40;;;16.60;99.90;;;;;;4957983;29;20177;-63
2023/04/21 08:34:08;;;;;;;3.80;3.40;;;17.10;99.90;;;;;;4957451;28;20735;-63
2023/04/21 08:36:34;;;;;;;3.27;3.07;;;18.20;99.90;;;;;;4957792;29;20197;-63
2023/04/21 08:39:00;;;;;;;3.67;3.47;;;19.40;98.50;;;;;;4957856;29;20178;-64
2023/04/21 08:41:26;;;;;;;3.10;2.90;;;20.20;99.20;;;;;;4957716;29;20187;-61
2023/04/21 08:43:52;;;;;;;4.40;4.00;;;21.20;96.20;;;;;;4957336;28;20487;-62
2023/04/21 08:46:18;;;;;;;3.57;3.00;;;22.00;92.90;;;;;;4957617;29;20428;-62
2023/04/21 08:48:45;;;;;;;3.10;2.80;;;21.80;91.10;;;;;;4957612;29;20528;-62
2023/04/21 08:51:16;;;;;;;3.93;3.63;;;21.50;90.30;;;;;;4957623;29;20232;-62
2023/04/21 08:53:43;;;;;;;3.43;3.13;;;21.30;91.30;;;;;;4957177;28;20719;-61
2023/04/21 08:56:09;;;;;;;3.40;3.20;;;21.50;92.30;;;;;;4957501;29;20763;-62
2023/04/21 08:58:34;;;;;;;3.23;2.97;;;21.80;92.00;;;;;;4957188;29;20478;-62
2023/04/21 09:01:00;;;;;;;2.70;2.50;;;21.90;92.10;;;;;;4957551;29;20201;-62
2023/04/21 09:03:27;;;;;;;4.13;3.73;;;22.30;92.60;;;;;;4957366;29;20185;-61
2023/04/21 09:06:04;;;;;;;3.10;2.87;;;22.70;91.20;;;;;;4957030;28;20223;-61
2023/04/21 09:08:30;;;;;;;3.27;2.97;;;22.80;90.10;;;;;;4957338;29;20433;-62
2023/04/21 09:10:57;;;;;;;2.63;2.37;;;22.70;90.90;;;;;;4957229;29;20797;-62
2023/04/21 09:13:30;;;;;;;2.77;2.53;;;23.30;87.10;;;;;;4956826;29;20845;-62
2023/04/21 09:15:56;;;;;;;2.80;2.60;;;23.40;85.90;;;;;;4956970;28;20498;-62
2023/04/21 09:18:26;;;;;;;3.27;2.97;;;23.40;86.30;;;;;;4957165;29;20409;-62
2023/04/21 09:21:10;;;;;;;2.60;2.40;;;23.60;89.10;;;;;;4957178;29;20181;-62
2023/04/21 09:23:54;;;;;;;3.03;2.83;;;23.70;88.10;;;;;;4956660;29;20420;-62
2023/04/21 09:26:23;;;;;;;2.90;2.70;;;23.60;85.40;;;;;;4953822;28;20428;-62
2023/04/21 09:28:51;;;;;;;3.40;3.10;;;23.40;85.70;;;;;;4956985;29;20508;-63
2023/04/21 09:31:23;;;;;;;2.80;2.60;;;23.50;88.40;;;;;;4956311;29;20827;-63
2023/04/21 09:33:58;;;;;;;3.23;2.70;;;23.90;87.50;;;;;;4956137;28;20393;-62
2023/04/21 09:36:26;;;;;;;3.37;3.07;;;24.50;84.50;;;;;;4956433;29;21048;-61
2023/04/21 09:39:00;;;;;;;3.37;3.10;;;24.80;83.10;;;;;;4956667;29;20417;-62
2023/04/21 09:41:26;;;;;;;3.50;3.20;;;25.10;84.50;;;;;;4956678;29;20496;-63
2023/04/21 09:43:52;;;;;;;2.77;2.57;;;25.40;82.20;;;;;;4956000;28;20496;-62
2023/04/21 09:46:19;;;;;;;2.80;2.60;;;25.80;83.80;;;;;;4956344;29;20184;-63
2023/04/21 09:48:46;;;;;;;2.63;2.43;;;26.30;80.50;;;;;;4956643;29;20186;-63
2023/04/21 09:51:14;;;;;;;2.60;2.40;;;26.20;80.70;;;;;;4956680;29;20411;-62
2023/04/21 09:53:40;;;;;;;2.57;2.37;;;26.40;80.00;;;;;;4955975;29;20440;-62
2023/04/21 09:56:12;;;;;;;3.00;2.50;;;26.70;79.50;;;;;;4956241;29;20448;-62
2023/04/21 09:58:52;;;;;;;3.50;3.20;;;26.80;77.50;;;;;;4938951;29;20405;-62
2023/04/21 10:01:19;;;;;;;2.57;2.37;;;27.00;79.00;;;;;;4955328;29;20412;-62
2023/04/21 10:03:47;;;;;;;2.83;2.60;;;26.80;78.30;;;;;;4955740;28;20404;-62
2023/04/21 10:06:13;;;;;;;3.00;2.80;;;26.40;76.20;;;;;;4955900;29;20464;-62
2023/04/21 10:08:39;;;;;;;2.70;2.50;;;26.10;77.70;;;;;;4956023;29;20953;-62
2023/04/21 10:11:06;;;;;;;2.20;2.10;;;26.10;78.70;;;;;;4956183;29;20807;-63
2023/04/21 10:13:33;;;;;;;2.03;1.93;;;26.10;76.50;;;;;;4955061;29;20419;-62
2023/04/21 10:16:09;;;;;;;3.57;3.27;;;26.10;75.30;;;;;;4955961;28;20556;-63
2023/04/21 10:18:47;;;;;;;3.03;2.73;;;25.50;77.50;;;;;;4955782;29;20408;-64
2023/04/21 10:21:20;;;;;;;3.20;2.90;;;25.70;79.30;;;;;;4955782;29;20409;-64
2023/04/21 10:23:47;;;;;;;2.70;2.50;;;25.80;77.20;;;;;;4955442;28;20497;-63
2023/04/21 10:26:21;;;;;;;3.13;2.93;;;25.60;79.20;;;;;;4955695;29;20439;-64
2023/04/21 10:29:04;;;;;;;5.80;4.73;;;25.10;79.10;;;;;;4955706;29;20420;-64
2023/04/21 10:31:52;;;;;;;2.30;2.10;;;24.90;80.10;;;;;;4955279;29;20846;-61
2023/04/21 10:34:20;;;;;;;3.20;2.80;;;24.80;80.20;;;;;;4954815;28;20437;-63
2023/04/21 10:37:06;;;;;;;2.37;2.27;;;24.50;79.60;;;;;;4938444;29;20468;-64
2023/04/21 10:39:41;;;;;;;3.07;2.83;;;24.70;80.30;;;;;;4955178;28;20412;-64
2023/04/21 10:42:18;;;;;;;2.23;2.03;;;24.60;79.30;;;;;;4954852;29;20387;-63
2023/04/21 10:44:52;;;;;;;3.90;3.00;;;24.40;79.80;;;;;;4954794;28;20419;-64
2023/04/21 10:47:25;;;;;;;2.73;2.53;;;24.40;79.60;;;;;;4955278;29;20401;-64
2023/04/21 10:49:51;;;;;;;2.33;2.20;;;24.50;81.30;;;;;;4955406;29;20399;-64
2023/04/21 10:52:19;;;;;;;3.33;3.03;;;24.70;80.60;;;;;;4955178;29;20391;-68
2023/04/21 10:54:45;;;;;;;3.07;2.60;;;24.70;78.80;;;;;;4954596;28;20695;-62
2023/04/21 10:57:20;;;;;;;2.93;2.53;;;24.60;79.80;;;;;;4954735;29;20443;-64
2023/04/21 10:59:47;;;;;;;3.23;2.93;;;24.30;80.20;;;;;;4958589;28;20588;-63
2023/04/21 11:02:14;;;;;;;3.40;3.10;;;24.20;81.80;;;;;;4957135;28;20395;-63
2023/04/21 11:04:43;;;;;;;4.17;3.80;;;24.10;81.10;;;;;;4954325;28;20440;-63
2023/04/21 11:07:10;;;;;;;3.20;2.90;;;23.90;80.90;;;;;;4952405;29;20439;-62
2023/04/21 11:09:37;;;;;;;2.60;2.40;;;23.60;80.20;;;;;;4955100;29;20383;-63
2023/04/21 11:12:08;;;;;;;3.00;2.77;;;22.80;83.40;;;;;;4955154;29;20411;-63
2023/04/21 11:14:36;;;;;;;2.77;2.47;;;21.70;84.10;;;;;;4937254;29;20419;-64
2023/04/21 11:17:03;;;;;;;3.13;2.83;;;20.90;86.70;;;;;;4954824;29;20460;-63
2023/04/21 11:19:31;;;;;;;2.80;2.47;;;20.10;89.20;;;;;;4955176;29;20407;-63
2023/04/21 11:21:57;;;;;;;2.93;2.73;;;19.30;90.70;;;;;;4954589;29;20456;-63
2023/04/21 11:24:23;;;;;;;2.33;2.13;;;18.70;91.70;;;;;;4954412;28;20409;-62
2023/04/21 11:26:49;;;;;;;3.17;2.87;;;18.30;92.60;;;;;;4955373;29;20387;-62
2023/04/21 11:29:15;;;;;;;2.90;2.60;;;17.90;93.10;;;;;;4954780;29;20628;-63
2023/04/21 11:31:44;;;;;;;2.63;2.43;;;17.60;94.70;;;;;;4954482;29;20210;-63
2023/04/21 11:34:10;;;;;;;4.00;2.90;;;17.50;94.80;;;;;;4954394;28;20494;-63
2023/04/21 11:36:41;;;;;;;3.03;2.33;;;17.40;94.50;;;;;;4954603;29;20460;-63
2023/04/21 11:39:11;;;;;;;3.37;3.07;;;17.30;95.20;;;;;;4954869;29;20379;-63
2023/04/21 11:41:41;;;;;;;2.70;2.50;;;17.10;95.50;;;;;;4955207;29;20413;-63
2023/04/21 11:44:08;;;;;;;3.23;2.80;;;17.00;96.30;;;;;;4954754;28;20846;-63
2023/04/21 11:46:36;;;;;;;4.00;2.37;;;16.90;97.00;;;;;;4954552;29;20446;-61
2023/04/21 11:49:11;;;;;;;3.40;2.97;;;16.90;96.60;;;;;;4954924;29;20447;-63
2023/04/21 11:51:39;;;;;;;2.20;1.97;;;17.00;97.20;;;;;;4956692;28;20477;-65
2023/04/21 11:54:07;;;;;;;2.93;2.73;;;16.90;97.30;;;;;;4958182;28;20786;-67
2023/04/21 11:56:41;;;;;;;3.87;3.10;;;17.00;96.60;;;;;;4957942;29;20436;-63
2023/04/21 11:59:11;;;;;;;3.63;3.27;;;17.00;96.70;;;;;;4957680;29;20465;-62
2023/04/21 12:01:51;;;;;;;2.30;1.73;;;17.10;96.80;;;;;;4939475;29;20445;-65
2023/04/21 12:04:19;;;;;;;1.73;1.63;;;17.10;96.40;;;;;;4939876;29;20428;-67
2023/04/21 12:06:45;;;;;;;1.73;1.63;;;17.00;97.80;;;;;;4958152;29;20427;-61
2023/04/21 12:09:18;;;;;;;2.03;1.93;;;17.00;97.10;;;;;;4958044;29;20485;-62
2023/04/21 12:11:48;;;;;;;2.50;2.30;;;17.10;96.40;;;;;;4958145;29;20423;-61
2023/04/21 12:14:15;;;;;;;2.23;2.03;;;17.10;96.90;;;;;;4957880;28;20432;-63
2023/04/21 12:16:41;;;;;;;2.87;2.57;;;17.20;96.70;;;;;;4958188;29;20777;-67
2023/04/21 12:19:07;;;;;;;3.67;2.47;;;17.20;97.00;;;;;;4957388;29;20422;-63
2023/04/21 12:21:36;;;;;;;2.73;2.53;;;17.20;96.70;;;;;;4957846;29;20388;-63
2023/04/21 12:24:03;;;;;;;3.07;2.47;;;17.20;96.60;;;;;;4957417;28;20818;-64
2023/04/21 12:26:29;;;;;;;2.70;2.20;;;17.20;96.90;;;;;;4957956;29;20416;-64
2023/04/21 12:28:55;;;;;;;3.60;2.67;;;17.30;96.40;;;;;;4957462;29;20418;-64
2023/04/21 12:31:20;;;;;;;1.70;1.60;;;17.40;96.40;;;;;;4940367;29;20416;-66
2023/04/21 12:33:46;;;;;;;2.60;2.47;;;17.40;96.80;;;;;;4956934;28;20255;-63
2023/04/21 12:36:11;;;;;;;2.87;2.63;;;17.50;95.70;;;;;;4957545;29;20200;-64
2023/04/21 12:38:37;;;;;;;3.37;3.07;;;17.60;96.20;;;;;;4957619;29;20180;-64
2023/04/21 12:41:03;;;;;;;2.37;2.17;;;17.70;95.90;;;;;;4940233;29;20528;-64
2023/04/21 12:43:29;;;;;;;2.50;2.40;;;17.60;95.50;;;;;;4956702;29;20420;-64
2023/04/21 12:45:55;;;;;;;2.27;2.07;;;17.60;96.10;;;;;;4940071;29;20199;-64
2023/04/21 12:48:21;;;;;;;1.83;1.73;;;17.60;96.60;;;;;;4957775;29;20384;-64
2023/04/21 12:50:46;;;;;;;1.90;1.80;;;17.70;96.30;;;;;;4940266;29;20180;-64
2023/04/21 12:53:12;;;;;;;2.73;2.53;;;17.80;96.10;;;;;;4957296;29;20180;-64
2023/04/21 12:55:39;;;;;;;2.20;1.90;;;17.80;96.30;;;;;;4957226;28;20216;-64
2023/04/21 12:58:05;;;;;;;3.17;2.87;;;17.90;95.90;;;;;;4956239;29;20496;-64
2023/04/21 13:00:32;;;;;;;3.00;1.60;;;17.90;94.90;;;;;;4956498;29;20498;-63
2023/04/21 13:02:57;;;;;;;2.30;2.10;;;18.00;95.50;;;;;;4956436;28;20185;-64
2023/04/21 13:05:23;;;;;;;2.93;2.37;;;18.00;95.70;;;;;;4956710;28;20461;-63
2023/04/21 13:07:49;;;;;;;2.70;2.50;;;18.10;95.70;;;;;;4956741;29;20203;-63
2023/04/21 13:10:14;;;;;;;2.10;1.77;;;18.10;95.70;;;;;;4956300;28;20240;-63
2023/04/21 13:12:40;;;;;;;2.43;1.97;;;18.20;95.40;;;;;;4956967;29;20181;-63
2023/04/21 13:15:07;;;;;;;2.47;1.97;;;18.20;95.50;;;;;;4956385;28;20630;-63
2023/04/21 13:17:32;;;;;;;1.63;1.53;;;18.30;95.60;;;;;;4956430;29;20429;-62
2023/04/21 13:19:58;;;;;;;1.87;1.77;;;18.30;94.70;;;;;;4956084;29;20555;-62
2023/04/21 13:22:24;;;;;;;2.30;1.90;;;18.30;95.20;;;;;;4956558;29;20267;-63
2023/04/21 13:24:49;;;;;;;2.33;2.13;;;18.40;95.20;;;;;;4956493;28;20196;-63
2023/04/21 13:27:15;;;;;;;1.80;1.70;;;18.50;93.90;;;;;;4956993;29;20271;-63
2023/04/21 13:29:58;;;;;;;2.13;2.03;;;18.40;94.30;;;;;;4956470;29;20328;-65
2023/04/21 13:32:25;;;;;;;2.63;2.40;;;18.40;95.00;;;;;;4955995;29;20187;-65
2023/04/21 13:34:52;;;;;;;1.80;1.70;;;18.40;94.10;;;;;;4955129;28;20418;-64
2023/04/21 13:37:18;;;;;;;1.93;1.83;;;18.40;93.80;;;;;;4954698;29;20690;-64
2023/04/21 13:39:43;;;;;;;1.70;1.60;;;18.50;93.30;;;;;;4956124;29;20503;-63
2023/04/21 13:42:09;;;;;;;1.70;1.60;;;18.50;93.70;;;;;;4954815;29;20165;-64
2023/04/21 13:44:35;;;;;;;2.43;1.40;;;18.50;94.60;;;;;;4955480;28;20303;-64
2023/04/21 13:47:00;;;;;;;1.97;1.87;;;18.50;94.70;;;;;;4956223;29;20172;-63
2023/04/21 13:49:26;;;;;;;2.20;2.00;;;18.60;94.10;;;;;;4954956;29;20173;-63
2023/04/21 13:51:52;;;;;;;1.77;1.67;;;18.70;93.50;;;;;;4954366;29;20182;-63
2023/04/21 13:54:17;;;;;;;2.13;1.90;;;18.60;93.80;;;;;;4954036;28;20674;-64
2023/04/21 13:56:43;;;;;;;1.47;1.37;;;18.70;93.40;;;;;;4954466;29;20200;-63
2023/04/21 13:59:09;;;;;;;3.63;1.77;;;18.80;92.90;;;;;;4954111;29;20638;-64
2023/04/21 14:01:35;;;;;;;1.70;1.60;;;18.80;92.10;;;;;;4954503;29;20264;-63
2023/04/21 14:04:01;;;;;;;1.40;1.30;;;18.80;92.60;;;;;;4937744;28;20423;-63
2023/04/21 14:06:26;;;;;;;1.70;1.60;;;18.80;92.90;;;;;;4955811;29;20429;-64
2023/04/21 14:08:52;;;;;;;1.70;1.60;;;18.90;92.90;;;;;;4956155;29;20180;-63
2023/04/21 14:11:18;;;;;;;2.03;1.90;;;19.00;92.80;;;;;;4956084;29;20264;-64
2023/04/21 14:13:44;;;;;;;1.80;1.53;;;18.90;93.20;;;;;;4954935;28;20948;-63
2023/04/21 14:16:10;;;;;;;1.63;1.50;;;19.00;93.30;;;;;;4955937;29;20257;-64
2023/04/21 14:18:37;;;;;;;1.60;1.50;;;18.90;93.00;;;;;;4955895;29;20204;-63
2023/04/21 14:21:02;;;;;;;2.40;2.20;;;19.00;93.10;;;;;;4956433;29;20638;-62
2023/04/21 14:23:28;;;;;;;2.60;2.40;;;19.00;93.00;;;;;;4955574;29;20412;-62
2023/04/21 14:25:54;;;;;;;1.67;1.57;;;19.10;92.70;;;;;;4955777;28;20196;-65
2023/04/21 14:28:19;;;;;;;2.07;1.97;;;19.10;92.80;;;;;;4955856;29;20191;-63
2023/04/21 14:30:45;;;;;;;2.70;2.27;;;19.10;92.80;;;;;;4955818;29;20215;-63
2023/04/21 14:33:11;;;;;;;1.47;1.40;;;19.10;92.80;;;;;;4955514;29;20205;-63
2023/04/21 14:35:36;;;;;;;1.73;1.63;;;19.20;93.00;;;;;;4955418;28;20263;-62
2023/04/21 14:38:02;;;;;;;2.33;1.40;;;19.20;92.70;;;;;;4955721;29;20177;-63
2023/04/21 14:40:27;;;;;;;1.50;1.40;;;19.20;92.60;;;;;;4955933;29;20208;-64
2023/04/21 14:42:53;;;;;;;3.70;1.57;;;19.30;92.50;;;;;;4938471;29;20177;-64
2023/04/21 14:45:19;;;;;;;1.57;1.57;;;19.30;92.40;;;;;;4955332;28;20690;-64
2023/04/21 14:47:44;;;;;;;2.17;1.97;;;19.30;92.40;;;;;;4955482;29;20173;-64
2023/04/21 14:50:10;;;;;;;2.20;2.00;;;19.30;92.10;;;;;;4955321;29;20184;-62
2023/04/21 14:52:35;;;;;;;1.50;1.40;;;19.30;92.30;;;;;;4955559;29;20184;-63
2023/04/21 14:55:02;;;;;;;1.30;1.20;;;19.20;92.00;;;;;;4954980;28;20656;-63
2023/04/21 14:57:28;;;;;;;1.73;1.63;;;19.20;92.30;;;;;;4955266;29;20208;-64
2023/04/21 14:59:54;;;;;;;1.80;1.70;;;19.20;92.40;;;;;;4955436;29;20412;-63
2023/04/21 15:02:20;;;;;;;1.90;1.80;;;19.20;92.40;;;;;;4955185;29;20894;-63
2023/04/21 15:04:50;;;;;;;1.17;1.17;;;19.30;91.60;;;;;;4954468;28;20204;-62
2023/04/21 15:07:18;;;;;;;1.20;1.20;;;19.30;91.40;;;;;;4936623;29;20475;-63
2023/04/21 15:09:44;;;;;;;1.20;1.10;;;19.40;90.40;;;;;;4953554;29;20500;-63
2023/04/21 15:12:12;;;;;;;0.80;0.80;;;19.40;90.90;;;;;;4952877;29;20179;-62
2023/04/21 15:14:38;;;;;;;2.10;1.27;;;19.50;90.80;;;;;;4935938;29;20788;-63
2023/04/21 15:17:04;;;;;;;1.43;1.23;;;19.50;91.00;;;;;;4951735;29;21213;-63
2023/04/21 15:19:30;;;;;;;1.40;1.10;;;19.50;91.00;;;;;;4954642;29;20556;-64
2023/04/21 15:21:56;;;;;;;1.43;1.33;;;19.50;90.70;;;;;;4938025;29;20184;-65
2023/04/21 15:24:22;;;;;;;1.73;1.63;;;19.50;91.20;;;;;;4954436;28;20240;-65
2023/04/21 15:26:47;;;;;;;1.17;1.13;;;19.50;91.00;;;;;;4957072;29;20463;-66
2023/04/21 15:29:13;;;;;;;1.93;1.10;;;19.50;91.10;;;;;;4956056;29;20457;-66
2023/04/21 15:31:39;;;;;;;1.60;1.50;;;19.50;91.40;;;;;;4956341;29;20659;-66
2023/04/21 15:34:04;;;;;;;1.27;1.03;;;19.50;91.50;;;;;;4939054;29;20300;-68
2023/04/21 15:36:30;;;;;;;1.30;1.30;;;19.60;91.10;;;;;;4956197;29;20221;-67
2023/04/21 15:38:56;;;;;;;1.43;1.20;;;19.70;91.40;;;;;;4952167;29;20334;-66
2023/04/21 15:41:24;;;;;;;1.40;1.27;;;19.70;91.00;;;;;;4957288;29;20519;-65
2023/04/21 15:43:49;;;;;;;1.53;1.43;;;19.80;91.40;;;;;;4957512;28;20184;-65
2023/04/21 15:46:15;;;;;;;1.37;1.27;;;19.90;91.10;;;;;;4948940;29;20433;-66
2023/04/21 15:48:41;;;;;;;1.47;1.37;;;19.90;91.60;;;;;;4958605;29;20179;-65
2023/04/21 15:51:08;;;;;;;2.00;1.80;;;20.00;92.00;;;;;;4941139;29;20272;-67
2023/04/21 15:53:36;;;;;;;1.50;1.40;;;20.00;92.00;;;;;;4958041;29;20495;-66
2023/04/21 15:56:02;;;;;;;1.37;1.27;;;20.00;91.60;;;;;;4958046;29;20555;-66
2023/04/21 15:58:28;;;;;;;1.70;1.60;;;20.00;91.70;;;;;;4956860;29;20464;-67
2023/04/21 16:00:53;;;;;;;1.43;1.33;;;20.00;91.80;;;;;;4958759;29;20887;-68
2023/04/21 16:03:20;;;;;;;1.67;1.10;;;20.00;92.10;;;;;;4957700;29;20552;-67
2023/04/21 16:05:45;;;;;;;1.50;1.40;;;20.00;92.20;;;;;;4957710;28;20286;-66
2023/04/21 16:08:11;;;;;;;1.17;1.17;;;20.00;91.90;;;;;;4958092;29;20432;-67
2023/04/21 16:10:36;;;;;;;1.37;1.27;;;20.00;92.30;;;;;;4957779;29;20180;-66
2023/04/21 16:13:03;;;;;;;3.23;1.90;;;20.00;92.10;;;;;;4957848;29;20268;-68
2023/04/21 16:15:28;;;;;;;1.93;1.47;;;20.00;92.50;;;;;;4957670;29;20201;-68
2023/04/21 16:17:54;;;;;;;1.30;1.20;;;19.90;92.20;;;;;;4957965;29;20416;-67
2023/04/21 16:20:20;;;;;;;2.03;1.90;;;19.90;92.20;;;;;;4957994;29;20176;-63
2023/04/21 16:22:47;;;;;;;1.70;1.60;;;19.80;92.20;;;;;;4957862;29;20185;-65
2023/04/21 16:25:14;;;;;;;2.10;2.00;;;19.70;92.30;;;;;;4942819;29;20197;-68
2023/04/21 16:27:40;;;;;;;1.83;1.73;;;19.60;92.40;;;;;;4958048;29;20413;-69
2023/04/21 16:30:06;;;;;;;1.70;1.40;;;19.50;92.90;;;;;;4956703;29;20422;-64
2023/04/21 16:32:34;;;;;;;2.00;1.90;;;19.40;93.10;;;;;;4956433;29;20170;-63
2023/04/21 16:35:00;;;;;;;2.17;1.40;;;19.30;93.30;;;;;;4956780;28;20485;-64
2023/04/21 16:37:25;;;;;;;1.80;1.70;;;19.20;93.10;;;;;;4956397;28;20427;-64
2023/04/21 16:39:51;;;;;;;1.83;1.73;;;19.20;93.00;;;;;;4961975;28;20427;-63
2023/04/21 16:42:16;;;;;;;1.83;1.67;;;19.10;93.30;;;;;;4956750;29;20181;-63
2023/04/21 16:44:42;;;;;;;1.70;1.60;;;19.00;93.70;;;;;;4959934;28;20192;-64
2023/04/21 16:47:08;;;;;;;1.53;1.43;;;19.00;93.90;;;;;;4956756;29;20184;-65
2023/04/21 16:49:33;;;;;;;1.57;1.47;;;19.00;94.20;;;;;;4957467;29;20278;-64
2023/04/21 16:51:59;;;;;;;1.70;1.60;;;19.00;94.20;;;;;;4956587;29;20172;-65